Time;durP1;ratioP1;P1;durP2;ratioP2;P2;SDS_P1;SDS_P2;PMS_P1;PMS_P2;Temp;Humidity;BMP_temperature;BMP_pressure;BME280_temperature;BME280_humidity;BME280_pressure;Samples;Min_cycle;Max_cycle;Signal;HPM_P1;HPM_P2
2023/10/26 00:00:13;;;;;;;10.80;6.80;;;;;;;24.63;44.37;98106.47;4484131;32;33886;-61
2023/10/26 00:02:40;;;;;;;9.68;7.10;;;;;;;24.62;44.37;98104.84;4484056;32;34642;-61
2023/10/26 00:05:08;;;;;;;11.10;6.40;;;;;;;24.63;44.28;98095.56;4482628;32;35255;-61
2023/10/26 00:07:35;;;;;;;8.48;6.85;;;;;;;24.63;44.27;98086.56;4484086;32;33583;-61
2023/10/26 00:10:04;;;;;;;9.65;6.80;;;;;;;24.63;44.23;98083.84;4483754;32;34191;-61
2023/10/26 00:12:31;;;;;;;8.85;6.45;;;;;;;24.62;44.25;98077.56;4484285;32;34046;-61
2023/10/26 00:15:00;;;;;;;9.07;6.93;;;;;;;24.62;44.33;98077.56;4484062;32;33987;-61
2023/10/26 00:17:28;;;;;;;8.82;6.75;;;;;;;24.60;44.28;98077.00;4484058;32;33354;-61
2023/10/26 00:19:55;;;;;;;7.62;6.07;;;;;;;24.61;44.29;98077.81;4482635;32;34492;-61
2023/10/26 00:22:22;;;;;;;9.45;6.85;;;;;;;24.60;44.33;98082.47;4483908;32;33691;-61
2023/10/26 00:24:50;;;;;;;9.73;6.20;;;;;;;24.60;44.32;98079.72;4479769;32;34519;-61
2023/10/26 00:27:18;;;;;;;8.80;6.65;;;;;;;24.60;44.25;98068.81;4482547;32;33724;-62
2023/10/26 00:29:45;;;;;;;8.63;6.30;;;;;;;24.61;44.28;98064.19;4479776;32;33654;-61
2023/10/26 00:32:13;;;;;;;17.62;6.60;;;;;;;24.59;44.31;98059.00;4482988;32;33694;-61
2023/10/26 00:34:41;;;;;;;9.07;6.57;;;;;;;24.59;44.33;98059.00;4482458;32;33917;-61
2023/10/26 00:37:09;;;;;;;7.60;6.35;;;;;;;24.60;44.30;98059.81;4483523;32;33759;-60
2023/10/26 00:39:37;;;;;;;7.50;6.05;;;;;;;24.58;44.31;98057.37;4482001;32;33747;-61
2023/10/26 00:42:04;;;;;;;9.55;6.55;;;;;;;24.59;44.31;98059.00;4483661;32;33843;-61
2023/10/26 00:44:32;;;;;;;8.57;6.45;;;;;;;24.58;44.28;98056.56;4483396;32;33731;-61
2023/10/26 00:46:59;;;;;;;7.28;5.85;;;;;;;24.58;44.35;98057.37;4483462;32;34108;-61
2023/10/26 00:49:27;;;;;;;7.90;6.07;;;;;;;24.57;44.36;98055.72;4479496;32;33873;-61
2023/10/26 00:51:56;;;;;;;9.88;6.45;;;;;;;24.58;44.35;98056.56;4483332;32;33712;-61
2023/10/26 00:54:24;;;;;;;9.00;6.12;;;;;;;24.59;44.41;98059.00;4483395;32;34214;-61
2023/10/26 00:56:51;;;;;;;8.65;5.97;;;;;;;24.59;44.45;98056.28;4483433;32;33559;-61
2023/10/26 00:59:19;;;;;;;7.93;6.15;;;;;;;24.58;44.45;98054.66;4471038;32;34861;-61
2023/10/26 01:01:50;;;;;;;9.07;6.22;;;;;;;24.58;44.61;98059.31;4458375;32;34676;-61
2023/10/26 01:04:17;;;;;;;9.40;7.35;;;;;;;24.57;44.60;98055.72;4485384;32;34856;-60
2023/10/26 01:06:45;;;;;;;8.43;5.85;;;;;;;24.57;44.56;98050.28;4485275;32;34413;-61
2023/10/26 01:09:15;;;;;;;10.80;6.07;;;;;;;24.57;44.62;98047.53;4485382;32;33985;-61
2023/10/26 01:11:43;;;;;;;10.30;6.37;;;;;;;24.57;44.61;98041.28;4471419;32;33860;-61
2023/10/26 01:14:11;;;;;;;11.65;6.68;;;;;;;24.57;44.61;98044.00;4458479;32;33799;-61
2023/10/26 01:16:39;;;;;;;8.48;6.15;;;;;;;24.57;44.63;98044.81;4471168;32;34566;-61
2023/10/26 01:19:08;;;;;;;10.38;6.05;;;;;;;24.57;44.59;98041.28;4471166;32;34006;-60
2023/10/26 01:21:52;;;;;;;6.72;5.40;;;;;;;24.56;44.56;98035.00;4485171;32;33281;-61
2023/10/26 01:24:20;;;;;;;8.50;6.40;;;;;;;24.58;44.63;98034.75;4485157;32;33737;-61
2023/10/26 01:26:48;;;;;;;8.90;6.10;;;;;;;24.56;44.56;98029.56;4479008;32;33667;-61
2023/10/26 01:29:16;;;;;;;8.18;6.07;;;;;;;24.55;44.58;98032.56;4483858;32;33443;-61
2023/10/26 01:31:45;;;;;;;7.72;5.80;;;;;;;24.55;44.65;98025.22;4485233;32;34016;-61
2023/10/26 01:34:13;;;;;;;8.30;6.37;;;;;;;24.55;44.69;98033.38;4485108;32;33527;-61
2023/10/26 01:36:40;;;;;;;8.05;6.22;;;;;;;24.55;44.68;98025.22;4485099;32;34083;-61
2023/10/26 01:39:08;;;;;;;9.00;6.10;;;;;;;24.55;44.68;98027.94;4485104;32;33932;-61
2023/10/26 01:41:36;;;;;;;8.60;6.30;;;;;;;24.55;44.68;98022.47;4483795;32;34117;-61
2023/10/26 01:44:04;;;;;;;8.23;5.35;;;;;;;24.54;44.67;98020.84;4485146;32;33757;-60
2023/10/26 01:46:31;;;;;;;7.95;6.22;;;;;;;24.56;44.63;98020.56;4485205;32;34288;-61
2023/10/26 01:49:01;;;;;;;8.23;5.95;;;;;;;24.55;44.64;98027.94;4484827;32;34662;-61
2023/10/26 01:51:28;;;;;;;7.68;6.00;;;;;;;24.54;44.63;98023.59;4471072;32;34001;-61
2023/10/26 01:53:56;;;;;;;7.57;5.53;;;;;;;24.56;44.57;98032.28;4483885;32;34557;-61
2023/10/26 01:56:24;;;;;;;6.85;5.45;;;;;;;24.55;44.58;98030.66;4484926;32;34041;-61
2023/10/26 01:58:52;;;;;;;10.52;6.53;;;;;;;24.54;44.65;98026.31;4484988;32;33026;-61
2023/10/26 02:01:19;;;;;;;7.95;5.82;;;;;;;24.55;44.65;98027.94;4485044;32;34153;-61
2023/10/26 02:03:47;;;;;;;9.90;6.18;;;;;;;24.55;44.64;98027.94;4484989;32;34660;-61
2023/10/26 02:06:15;;;;;;;8.32;6.07;;;;;;;24.55;44.68;98027.13;4484993;32;34352;-61
2023/10/26 02:08:42;;;;;;;10.43;6.28;;;;;;;24.54;44.62;98020.84;4484806;32;33840;-61
2023/10/26 02:11:10;;;;;;;7.72;5.80;;;;;;;24.54;44.61;98015.41;4484803;32;34015;-61
2023/10/26 02:13:39;;;;;;;7.68;5.62;;;;;;;24.54;44.64;98017.31;4485179;32;34111;-61
2023/10/26 02:16:07;;;;;;;7.47;5.72;;;;;;;24.53;44.59;98013.78;4485107;32;34443;-61
2023/10/26 02:18:35;;;;;;;10.88;5.97;;;;;;;24.53;44.64;98008.31;4484815;32;34545;-61
2023/10/26 02:21:03;;;;;;;10.30;6.00;;;;;;;24.54;44.77;98011.87;4484892;32;34221;-61
2023/10/26 02:23:30;;;;;;;10.90;5.95;;;;;;;24.54;44.67;98003.69;4484656;32;34006;-61
2023/10/26 02:25:58;;;;;;;8.55;5.25;;;;;;;24.53;44.69;97997.41;4484676;32;34295;-61
2023/10/26 02:28:25;;;;;;;8.80;6.07;;;;;;;24.52;44.66;98001.22;4484873;32;34535;-61
2023/10/26 02:30:53;;;;;;;6.97;5.65;;;;;;;24.52;44.65;97995.75;4484511;32;34770;-62
2023/10/26 02:33:21;;;;;;;8.43;5.50;;;;;;;24.53;44.64;97999.28;4484717;32;34785;-61
2023/10/26 02:35:48;;;;;;;8.73;6.00;;;;;;;24.51;44.73;97994.13;4484762;32;33669;-61
2023/10/26 02:38:16;;;;;;;7.30;5.65;;;;;;;24.52;44.69;97997.66;4484584;32;34048;-61
2023/10/26 02:40:43;;;;;;;7.75;5.60;;;;;;;24.51;44.65;97988.69;4484773;32;34029;-60
2023/10/26 02:43:12;;;;;;;6.80;5.78;;;;;;;24.51;44.66;97994.13;4484578;32;34926;-60
2023/10/26 02:45:41;;;;;;;8.38;5.45;;;;;;;24.52;44.74;97998.50;4484489;32;33592;-61
2023/10/26 02:48:08;;;;;;;6.65;5.05;;;;;;;24.51;44.73;97985.94;4484659;32;33575;-61
2023/10/26 02:50:36;;;;;;;7.32;5.62;;;;;;;24.52;44.73;97994.94;4484438;32;34089;-61
2023/10/26 02:53:04;;;;;;;6.72;5.45;;;;;;;24.51;44.67;97994.13;4484517;32;34805;-61
2023/10/26 02:55:31;;;;;;;8.02;5.65;;;;;;;24.52;44.69;97987.59;4484654;32;34381;-61
2023/10/26 02:57:59;;;;;;;8.13;5.47;;;;;;;24.51;44.68;97987.88;4484607;32;34034;-61
2023/10/26 03:00:26;;;;;;;7.10;5.30;;;;;;;24.52;44.69;97986.75;4484455;32;33753;-61
2023/10/26 03:02:56;;;;;;;6.75;5.57;;;;;;;24.51;44.69;97988.69;4484597;32;34101;-61
2023/10/26 03:05:23;;;;;;;7.32;5.28;;;;;;;24.51;44.67;97990.59;4484601;32;33529;-61
2023/10/26 03:07:52;;;;;;;7.55;5.70;;;;;;;24.52;44.65;98001.22;4484409;32;34766;-61
2023/10/26 03:10:20;;;;;;;6.65;5.10;;;;;;;24.51;44.67;97998.78;4470358;32;33308;-61
2023/10/26 03:12:48;;;;;;;6.82;4.85;;;;;;;24.52;44.65;98000.41;4484441;32;33137;-61
2023/10/26 03:15:16;;;;;;;6.05;4.37;;;;;;;24.51;44.62;97998.78;4484360;32;33656;-61
2023/10/26 03:17:44;;;;;;;6.95;5.28;;;;;;;24.50;44.63;97994.41;4484485;32;33753;-61
2023/10/26 03:20:12;;;;;;;7.15;5.40;;;;;;;24.51;44.62;98004.22;4483865;32;34877;-61
2023/10/26 03:22:39;;;;;;;7.95;5.55;;;;;;;24.50;44.62;98010.78;4484156;32;34773;-61
2023/10/26 03:25:07;;;;;;;7.50;5.40;;;;;;;24.50;44.62;98008.88;4484417;32;34054;-61
2023/10/26 03:27:35;;;;;;;7.50;5.57;;;;;;;24.50;44.67;98011.59;4468738;32;34617;-61
2023/10/26 03:30:03;;;;;;;8.20;5.37;;;;;;;24.50;44.65;98008.88;4468583;32;33613;-61
2023/10/26 03:32:30;;;;;;;5.97;4.75;;;;;;;24.50;44.71;98006.13;4454327;32;32899;-61
2023/10/26 03:34:58;;;;;;;8.18;5.07;;;;;;;24.49;44.67;98009.97;4468787;32;32835;-60
2023/10/26 03:37:26;;;;;;;7.65;5.40;;;;;;;24.49;44.65;98006.44;4468543;32;34399;-61
2023/10/26 03:39:55;;;;;;;;;;;;;;;24.50;44.62;98013.50;4467776;32;33531;-61
2023/10/26 03:42:23;;;;;;;6.43;4.62;;;;;;;24.59;44.62;98011.84;4468962;32;34424;-61
2023/10/26 03:44:51;;;;;;;6.82;5.12;;;;;;;24.51;44.82;98017.84;4468598;32;34314;-61
2023/10/26 03:47:18;;;;;;;8.50;5.70;;;;;;;24.49;44.84;98012.69;4468462;32;33544;-61
2023/10/26 03:49:46;;;;;;;7.80;4.93;;;;;;;24.48;44.82;98011.06;4468407;32;33975;-61
2023/10/26 03:52:15;;;;;;;7.53;5.40;;;;;;;24.48;44.81;98010.22;4468361;32;34817;-61
2023/10/26 03:54:42;;;;;;;9.10;5.07;;;;;;;24.48;44.80;98004.78;4468521;32;34382;-61
2023/10/26 03:57:10;;;;;;;7.50;5.47;;;;;;;24.48;44.74;98010.22;4468368;32;33957;-61
2023/10/26 03:59:38;;;;;;;7.03;5.25;;;;;;;24.48;44.71;98008.34;4468771;32;33524;-61
2023/10/26 04:02:06;;;;;;;8.82;4.85;;;;;;;24.48;44.74;98010.22;4468449;32;34263;-61
2023/10/26 04:04:34;;;;;;;6.40;4.85;;;;;;;24.47;44.77;98012.13;4468193;32;33974;-61
2023/10/26 04:07:01;;;;;;;8.38;4.95;;;;;;;24.47;44.84;98003.13;4468230;32;33982;-61
2023/10/26 04:09:29;;;;;;;7.87;5.03;;;;;;;24.48;44.75;98011.06;4468321;32;33922;-62
2023/10/26 04:11:56;;;;;;;9.88;5.07;;;;;;;24.53;44.92;98010.19;4466875;32;33957;-64
2023/10/26 04:14:25;;;;;;;9.40;5.10;;;;;;;24.52;45.00;98009.38;4468133;32;33259;-64
2023/10/26 04:16:52;;;;;;;8.00;4.37;;;;;;;24.49;44.39;98006.44;4468241;32;34419;-63
2023/10/26 04:19:20;;;;;;;9.13;4.35;;;;;;;24.48;43.90;98007.50;4468206;32;33990;-64
2023/10/26 04:21:47;;;;;;;10.55;4.40;;;;;;;24.47;43.82;98000.41;4468128;32;34106;-64
2023/10/26 04:24:15;;;;;;;7.90;4.62;;;;;;;24.46;43.90;98006.97;4479953;32;33473;-64
2023/10/26 04:26:43;;;;;;;7.35;4.50;;;;;;;24.44;43.88;98004.53;4477932;32;33853;-63
2023/10/26 04:29:10;;;;;;;7.05;4.40;;;;;;;24.42;43.90;98007.50;4482543;32;33843;-63
2023/10/26 04:31:38;;;;;;;9.57;4.55;;;;;;;24.42;43.87;98003.97;4482767;32;34209;-63
2023/10/26 04:34:06;;;;;;;7.25;4.18;;;;;;;24.40;43.79;98006.16;4483334;32;33277;-64
2023/10/26 04:36:33;;;;;;;7.53;4.12;;;;;;;24.39;43.82;98007.28;4483625;32;33736;-64
2023/10/26 04:39:01;;;;;;;8.00;4.50;;;;;;;24.38;43.87;98002.88;4483638;32;33967;-64
2023/10/26 04:41:28;;;;;;;7.45;4.40;;;;;;;24.39;43.86;98007.28;4483253;32;33668;-64
2023/10/26 04:43:56;;;;;;;7.97;4.20;;;;;;;24.38;43.79;98008.34;4477615;32;33152;-63
2023/10/26 04:46:23;;;;;;;6.62;4.18;;;;;;;24.37;43.87;98012.16;4483318;32;34045;-64
2023/10/26 04:48:51;;;;;;;9.65;4.07;;;;;;;24.36;43.86;98007.78;4483211;32;33810;-64
2023/10/26 04:51:19;;;;;;;9.23;4.18;;;;;;;24.36;43.87;98007.78;4483417;32;34350;-64
2023/10/26 04:53:46;;;;;;;6.00;4.10;;;;;;;24.35;43.86;98014.31;4483454;32;34368;-63
2023/10/26 04:56:14;;;;;;;7.05;3.90;;;;;;;24.35;43.96;98020.59;4483092;32;34089;-63
2023/10/26 04:58:43;;;;;;;7.85;4.05;;;;;;;24.34;44.04;98009.94;4483467;32;34102;-64
2023/10/26 05:01:10;;;;;;;5.05;3.78;;;;;;;24.33;44.07;98011.03;4483199;32;34205;-64
2023/10/26 05:03:38;;;;;;;7.32;4.47;;;;;;;24.33;44.05;98008.31;4483182;32;32882;-64
2023/10/26 05:06:06;;;;;;;7.97;4.22;;;;;;;24.33;44.09;98013.78;4483473;32;33850;-64
2023/10/26 05:08:34;;;;;;;6.60;3.80;;;;;;;24.32;44.12;98012.97;4483275;32;34669;-64
2023/10/26 05:11:01;;;;;;;7.05;3.97;;;;;;;24.32;44.10;98009.41;4482950;32;33734;-63
2023/10/26 05:13:29;;;;;;;7.20;4.28;;;;;;;24.32;44.17;98015.69;4482159;32;33637;-63
2023/10/26 05:15:57;;;;;;;7.07;3.65;;;;;;;24.32;44.16;98001.25;4483129;32;34662;-64
2023/10/26 05:18:24;;;;;;;6.60;4.10;;;;;;;24.31;44.18;98010.50;4468849;32;34761;-64
2023/10/26 05:20:52;;;;;;;6.50;4.07;;;;;;;24.31;44.18;98013.25;4482987;32;34198;-64
2023/10/26 05:23:19;;;;;;;6.22;4.20;;;;;;;24.31;44.21;98010.50;4482955;32;33410;-64
2023/10/26 05:25:48;;;;;;;8.38;4.57;;;;;;;24.31;44.22;98018.69;4482687;32;33852;-63
2023/10/26 05:28:15;;;;;;;8.18;3.80;;;;;;;24.29;44.22;98020.84;4482792;32;34871;-64
2023/10/26 05:30:42;;;;;;;7.70;3.70;;;;;;;24.30;44.25;98019.78;4482915;32;33618;-64
2023/10/26 05:33:10;;;;;;;6.75;4.40;;;;;;;24.29;44.24;98020.84;4482762;32;34027;-64
2023/10/26 05:35:38;;;;;;;4.57;3.42;;;;;;;24.29;44.24;98029.84;4482825;32;33980;-64
2023/10/26 05:38:06;;;;;;;6.03;3.95;;;;;;;24.29;44.20;98029.03;4482233;32;33767;-64
2023/10/26 05:40:34;;;;;;;6.22;3.90;;;;;;;24.29;44.25;98031.75;4482195;32;34524;-63
2023/10/26 05:43:02;;;;;;;8.57;4.43;;;;;;;24.29;44.15;98026.31;4482082;32;33366;-62
2023/10/26 05:45:36;;;;;;;7.68;4.32;;;;;;;24.29;44.24;98029.03;4484966;32;33506;-64
2023/10/26 05:48:05;;;;;;;8.38;4.00;;;;;;;24.27;44.29;98042.94;4483778;32;34042;-63
2023/10/26 05:50:33;;;;;;;6.45;3.78;;;;;;;24.27;44.28;98032.03;4484951;32;34284;-64
2023/10/26 05:53:02;;;;;;;6.25;3.95;;;;;;;24.27;44.25;98032.03;4484679;32;33632;-64
2023/10/26 05:55:30;;;;;;;6.75;3.70;;;;;;;24.27;44.23;98032.03;4485045;32;34033;-64
2023/10/26 05:57:58;;;;;;;5.85;3.53;;;;;;;24.27;44.15;98053.84;4485017;32;33666;-64
2023/10/26 06:00:26;;;;;;;6.50;4.07;;;;;;;24.27;44.22;98047.59;4484827;32;34061;-63
2023/10/26 06:02:53;;;;;;;6.60;3.90;;;;;;;24.26;44.23;98046.78;4483064;32;34301;-62
2023/10/26 06:05:21;;;;;;;6.32;3.90;;;;;;;24.27;44.27;98055.75;4483747;32;33904;-62
2023/10/26 06:07:48;;;;;;;5.68;4.07;;;;;;;24.26;44.29;98070.50;4484535;32;33722;-62
2023/10/26 06:10:16;;;;;;;6.35;3.65;;;;;;;24.25;44.33;98080.56;4484959;32;34888;-62
2023/10/26 06:12:44;;;;;;;7.90;3.75;;;;;;;24.26;44.31;98075.94;4484854;32;33514;-61
2023/10/26 06:15:11;;;;;;;7.12;3.45;;;;;;;24.25;44.24;98082.44;4484765;32;33974;-62
2023/10/26 06:17:39;;;;;;;6.25;3.62;;;;;;;24.25;44.32;98079.72;4484882;32;34832;-64
2023/10/26 06:20:07;;;;;;;6.12;3.60;;;;;;;24.25;44.28;98077.84;4484767;32;34006;-64
2023/10/26 06:22:35;;;;;;;6.37;3.67;;;;;;;24.24;44.22;98083.56;4470905;32;33563;-64
2023/10/26 06:25:05;;;;;;;7.05;3.58;;;;;;;24.25;44.27;98088.75;4484722;32;33870;-62
2023/10/26 06:27:32;;;;;;;7.37;3.87;;;;;;;24.24;44.31;98097.19;4484615;32;33984;-64
2023/10/26 06:30:00;;;;;;;5.50;3.58;;;;;;;24.23;44.23;98107.25;4484494;32;34077;-62
2023/10/26 06:32:28;;;;;;;5.30;3.53;;;;;;;24.23;44.22;98107.25;4484800;32;33535;-62
2023/10/26 06:34:56;;;;;;;8.45;3.90;;;;;;;24.23;44.17;98103.72;4484770;32;34723;-62
2023/10/26 06:37:24;;;;;;;5.90;3.60;;;;;;;24.23;44.17;98090.09;4484534;32;33957;-63
2023/10/26 06:39:51;;;;;;;6.68;3.30;;;;;;;24.22;44.11;98088.47;4484721;32;34833;-63
2023/10/26 06:42:19;;;;;;;7.60;3.85;;;;;;;24.22;44.17;98102.09;4484775;32;34129;-62
2023/10/26 06:44:47;;;;;;;8.00;4.00;;;;;;;24.22;44.19;98093.91;4484858;32;32650;-62
2023/10/26 06:47:15;;;;;;;6.87;3.95;;;;;;;24.21;44.13;98092.28;4484653;32;34693;-62
2023/10/26 06:49:43;;;;;;;7.75;3.40;;;;;;;24.21;44.08;98100.47;4484617;32;34796;-62
2023/10/26 06:52:11;;;;;;;6.47;3.60;;;;;;;24.21;44.10;98100.47;4484373;32;32964;-62
2023/10/26 06:54:38;;;;;;;7.47;3.60;;;;;;;24.19;44.08;98096.09;4483990;32;33469;-62
2023/10/26 06:57:07;;;;;;;6.22;3.58;;;;;;;24.19;44.00;98106.16;4484510;32;33892;-62
2023/10/26 06:59:34;;;;;;;5.53;3.80;;;;;;;24.19;44.02;98100.72;4484603;32;34179;-62
2023/10/26 07:02:02;;;;;;;5.87;3.58;;;;;;;24.19;44.04;98085.19;4484641;32;33213;-63
2023/10/26 07:04:37;;;;;;;5.85;3.75;;;;;;;24.18;44.05;98088.19;4484460;32;33650;-63
2023/10/26 07:07:05;;;;;;;4.62;3.08;;;;;;;24.18;44.00;98091.72;4484577;32;34740;-62
2023/10/26 07:09:32;;;;;;;5.70;3.40;;;;;;;24.19;43.95;98122.53;4484505;32;33890;-62
2023/10/26 07:12:00;;;;;;;6.47;3.40;;;;;;;24.17;43.84;98120.06;4484363;32;33602;-62
2023/10/26 07:14:28;;;;;;;7.30;3.25;;;;;;;24.18;43.59;98116.25;4484464;32;34553;-62
2023/10/26 07:16:56;;;;;;;4.80;2.85;;;;;;;24.16;43.30;98123.09;4483274;32;34655;-62
2023/10/26 07:19:24;;;;;;;6.50;3.00;;;;;;;24.15;42.98;98122.28;4484154;32;34053;-65
2023/10/26 07:21:51;;;;;;;8.90;3.47;;;;;;;24.14;42.82;98128.78;4484450;32;34969;-65
2023/10/26 07:24:19;;;;;;;7.18;3.62;;;;;;;24.13;42.65;98129.06;4484468;32;34686;-65
2023/10/26 07:26:49;;;;;;;7.00;3.92;;;;;;;24.12;42.60;98122.81;4483830;32;34535;-65
2023/10/26 07:29:17;;;;;;;6.85;3.95;;;;;;;24.11;42.56;98117.63;4484491;32;34565;-66
2023/10/26 07:31:44;;;;;;;6.18;3.65;;;;;;;24.09;42.57;98117.87;4483189;32;34070;-65
2023/10/26 07:34:14;;;;;;;7.32;3.67;;;;;;;24.07;42.50;98103.72;4484215;32;31711;-64
2023/10/26 07:36:42;;;;;;;7.62;3.53;;;;;;;24.06;42.44;98098.53;4484356;32;33759;-64
2023/10/26 07:39:10;;;;;;;6.50;3.47;;;;;;;24.04;42.43;98109.72;4484323;32;33821;-66
2023/10/26 07:41:57;;;;;;;5.75;3.35;;;;;;;24.04;42.43;98122.50;4484329;32;33676;-66
2023/10/26 07:44:37;;;;;;;6.78;3.75;;;;;;;24.03;42.39;98112.72;4483758;32;33685;-63
2023/10/26 07:47:12;;;;;;;6.75;3.67;;;;;;;24.01;42.42;98120.31;4483156;32;33998;-65
2023/10/26 07:49:40;;;;;;;5.70;3.80;;;;;;;23.99;42.39;98117.87;4481381;32;92718;-62
2023/10/26 07:52:07;;;;;;;6.57;3.33;;;;;;;23.98;42.49;98129.88;4483828;32;34635;-64
2023/10/26 07:54:35;;;;;;;5.45;2.78;;;;;;;23.97;42.60;98130.97;4483924;32;33798;-64
2023/10/26 07:57:03;;;;;;;4.65;2.80;;;;;;;23.98;42.69;98132.59;4484551;32;34135;-64
2023/10/26 07:59:30;;;;;;;5.05;2.80;;;;;;;23.98;42.72;98138.03;4483994;32;34361;-64
2023/10/26 08:01:58;;;;;;;6.32;3.10;;;;;;;23.98;42.74;98140.78;4482197;32;33730;-64
2023/10/26 08:04:29;;;;;;;6.47;3.17;;;;;;;23.98;42.81;98140.78;4483848;32;34441;-64
2023/10/26 08:06:57;;;;;;;5.30;2.85;;;;;;;23.99;42.86;98152.47;4483918;32;33785;-64
2023/10/26 08:09:25;;;;;;;5.57;2.47;;;;;;;23.99;42.92;98150.56;4484099;32;33776;-64
2023/10/26 08:11:53;;;;;;;5.90;3.00;;;;;;;23.99;42.95;98142.41;4469946;32;33477;-64
2023/10/26 08:14:22;;;;;;;5.68;2.70;;;;;;;24.00;42.94;98138.59;4483891;32;34646;-64
2023/10/26 08:17:10;;;;;;;5.22;2.40;;;;;;;24.00;42.98;98141.31;4483868;32;34038;-64
2023/10/26 08:19:38;;;;;;;4.70;2.50;;;;;;;24.01;43.00;98144.84;4484164;32;34364;-64
2023/10/26 08:22:07;;;;;;;6.78;2.40;;;;;;;24.01;43.03;98163.91;4483907;32;32772;-64
2023/10/26 08:24:35;;;;;;;6.10;2.60;;;;;;;24.01;43.02;98167.44;4483637;32;33798;-64
2023/10/26 08:27:03;;;;;;;3.87;2.28;;;;;;;24.02;43.00;98166.38;4483889;32;34058;-64
2023/10/26 08:29:31;;;;;;;4.18;2.22;;;;;;;24.01;43.01;98164.72;4483783;32;34971;-64
2023/10/26 08:31:59;;;;;;;6.03;2.15;;;;;;;24.01;43.05;98164.72;4483662;32;33546;-64
2023/10/26 08:34:27;;;;;;;4.80;2.17;;;;;;;24.01;43.05;98170.19;4484012;32;34206;-64
2023/10/26 08:36:55;;;;;;;4.68;2.37;;;;;;;24.02;43.09;98166.38;4483645;32;33691;-64
2023/10/26 08:39:40;;;;;;;4.25;2.42;;;;;;;24.02;43.11;98162.84;4483939;32;34199;-64
2023/10/26 08:42:08;;;;;;;4.40;1.80;;;;;;;24.03;43.08;98154.41;4483963;32;33768;-64
2023/10/26 08:44:36;;;;;;;3.95;2.20;;;;;;;24.03;43.11;98159.84;4483385;32;33787;-64
2023/10/26 08:47:04;;;;;;;4.87;2.42;;;;;;;24.02;43.11;98158.22;4483591;32;34703;-64
2023/10/26 08:49:33;;;;;;;4.18;2.20;;;;;;;24.03;43.12;98159.03;4482380;32;34710;-64
2023/10/26 08:52:00;;;;;;;4.60;2.20;;;;;;;24.02;43.12;98158.22;4483237;32;34961;-65
2023/10/26 08:54:28;;;;;;;5.20;2.20;;;;;;;24.04;43.17;98149.75;4483336;32;34472;-64
2023/10/26 08:56:56;;;;;;;3.60;2.03;;;;;;;24.02;43.15;98152.78;4483443;32;33671;-64
2023/10/26 08:59:23;;;;;;;3.12;1.52;;;;;;;24.04;43.13;98157.94;4482006;32;34730;-64
2023/10/26 09:01:52;;;;;;;6.00;2.58;;;;;;;24.03;43.13;98153.59;4483688;32;34251;-64
2023/10/26 09:04:19;;;;;;;4.32;2.05;;;;;;;24.03;43.16;98162.56;4483308;32;34338;-65
2023/10/26 09:06:51;;;;;;;4.57;2.00;;;;;;;24.04;43.15;98164.19;4483043;32;34707;-64
2023/10/26 09:09:19;;;;;;;3.87;2.10;;;;;;;24.03;43.22;98167.22;4483301;32;33893;-64
2023/10/26 09:11:49;;;;;;;4.60;2.35;;;;;;;24.04;43.19;98160.66;4483246;32;33359;-64
2023/10/26 09:14:17;;;;;;;4.60;1.90;;;;;;;24.04;43.13;98169.66;4483031;32;34487;-64
2023/10/26 09:16:46;;;;;;;2.47;1.75;;;;;;;24.04;43.18;98168.84;4481914;32;33436;-64
2023/10/26 09:19:15;;;;;;;3.87;1.75;;;;;;;24.04;43.17;98169.66;4484312;32;33701;-65
2023/10/26 09:21:50;;;;;;;3.42;1.77;;;;;;;24.02;43.20;98177.28;4484153;32;33274;-64
2023/10/26 09:24:24;;;;;;;3.75;2.00;;;;;;;24.05;43.18;98176.72;4485356;32;33614;-64
2023/10/26 09:26:56;;;;;;;4.15;1.87;;;;;;;24.04;43.20;98175.09;4485321;32;33893;-64
2023/10/26 09:29:36;;;;;;;3.55;1.90;;;;;;;24.03;43.21;98176.19;4471161;32;34672;-64
2023/10/26 09:32:04;;;;;;;4.45;2.03;;;;;;;24.05;43.19;98181.34;4483902;32;33331;-64
2023/10/26 09:34:40;;;;;;;4.37;1.90;;;;;;;24.04;43.21;98177.00;4485207;32;33472;-64
2023/10/26 09:37:08;;;;;;;3.85;2.08;;;;;;;24.04;43.23;98188.72;4471256;32;34814;-64
2023/10/26 09:39:37;;;;;;;4.03;2.00;;;;;;;24.03;43.16;98203.44;4485388;32;34101;-64
2023/10/26 09:42:11;;;;;;;4.50;2.20;;;;;;;24.03;43.19;98189.81;4471939;32;33286;-65
2023/10/26 09:44:40;;;;;;;2.92;1.80;;;;;;;24.04;43.18;98182.47;4483791;32;34563;-64
2023/10/26 09:47:07;;;;;;;3.35;1.95;;;;;;;24.04;43.18;98179.72;4485105;32;33659;-64
2023/10/26 09:49:35;;;;;;;3.92;1.83;;;;;;;24.03;43.20;98176.19;4483834;32;34721;-64
2023/10/26 09:52:03;;;;;;;3.95;2.33;;;;;;;24.04;43.20;98166.91;4484906;32;34297;-64
2023/10/26 09:54:36;;;;;;;4.65;1.70;;;;;;;24.03;43.21;98170.75;4483719;32;33899;-64
2023/10/26 09:57:13;;;;;;;3.22;1.85;;;;;;;24.04;43.22;98175.09;4471020;32;33905;-64
2023/10/26 09:59:40;;;;;;;5.32;1.85;;;;;;;24.04;43.23;98166.91;4485033;32;34026;-64
2023/10/26 10:02:17;;;;;;;3.78;1.70;;;;;;;24.03;43.23;98173.47;4485040;32;33341;-64
2023/10/26 10:04:45;;;;;;;3.00;1.85;;;;;;;24.04;43.21;98172.37;4483608;32;34606;-64
2023/10/26 10:07:17;;;;;;;3.37;2.00;;;;;;;24.04;43.25;98160.66;4484940;32;33981;-64
2023/10/26 10:10:03;;;;;;;3.45;1.80;;;;;;;24.04;43.27;98168.84;4483666;32;33901;-64
2023/10/26 10:12:32;;;;;;;2.92;1.70;;;;;;;24.05;43.22;98163.09;4484978;32;34281;-64
2023/10/26 10:15:03;;;;;;;2.90;1.77;;;;;;;24.03;43.29;98153.59;4483554;32;33658;-64
2023/10/26 10:17:50;;;;;;;2.80;1.67;;;;;;;24.03;43.31;98150.84;4473475;32;34809;-64
2023/10/26 10:20:18;;;;;;;3.35;1.90;;;;;;;24.03;43.26;98151.66;4484732;32;34864;-64
2023/10/26 10:22:48;;;;;;;3.80;1.90;;;;;;;24.04;43.28;98150.56;4485211;32;33231;-64
2023/10/26 10:25:17;;;;;;;2.47;1.73;;;;;;;24.03;43.28;98143.50;4484731;32;33828;-64
2023/10/26 10:27:48;;;;;;;3.12;1.90;;;;;;;24.04;43.27;98141.59;4483522;32;33631;-64
2023/10/26 10:30:23;;;;;;;3.35;1.77;;;;;;;24.03;43.26;98135.31;4483844;32;34167;-65
2023/10/26 10:32:52;;;;;;;3.42;1.65;;;;;;;24.03;43.28;98138.06;4471060;32;34380;-64
2023/10/26 10:35:20;;;;;;;2.53;1.55;;;;;;;24.04;43.30;98144.31;4484715;32;34478;-64
2023/10/26 10:38:13;;;;;;;2.80;1.48;;;;;;;24.04;43.27;98141.59;4485024;32;33520;-64
2023/10/26 10:41:01;;;;;;;2.78;1.62;;;;;;;24.05;43.22;98141.31;4484637;32;33796;-64
2023/10/26 10:43:32;;;;;;;3.03;1.65;;;;;;;24.03;43.28;98139.97;4484615;32;33276;-64
2023/10/26 10:46:09;;;;;;;2.70;1.85;;;;;;;24.02;43.29;98136.41;4483513;32;33847;-64
2023/10/26 10:48:59;;;;;;;2.20;1.45;;;;;;;24.04;43.30;98136.13;4484692;32;34676;-64
2023/10/26 10:51:28;;;;;;;3.45;1.77;;;;;;;24.04;43.31;98136.13;4483458;31;34967;-64
2023/10/26 10:53:57;;;;;;;3.22;1.67;;;;;;;24.03;43.29;98134.50;4484494;32;33541;-64
2023/10/26 10:56:48;;;;;;;2.40;1.58;;;;;;;24.04;43.29;98130.69;4484704;32;34867;-64
2023/10/26 10:59:19;;;;;;;2.45;1.50;;;;;;;24.05;43.24;98133.13;4484555;32;33917;-64
2023/10/26 11:01:48;;;;;;;2.83;1.58;;;;;;;24.03;43.28;98143.50;4483544;32;35123;-64
2023/10/26 11:04:16;;;;;;;2.70;1.80;;;;;;;24.03;43.29;98140.78;4484561;32;33561;-64
2023/10/26 11:06:45;;;;;;;3.22;1.70;;;;;;;24.03;43.22;98137.22;4483133;32;33820;-64
2023/10/26 11:09:27;;;;;;;2.23;1.43;;;;;;;24.03;43.25;98127.16;4483467;32;33884;-64
2023/10/26 11:11:55;;;;;;;3.08;1.50;;;;;;;24.05;43.25;98129.59;4483062;32;34767;-64
2023/10/26 11:14:22;;;;;;;3.78;1.95;;;;;;;24.03;43.25;98129.88;4483232;32;33643;-64
2023/10/26 11:16:50;;;;;;;1.98;1.50;;;;;;;24.03;43.27;98124.44;4483279;32;32710;-64
2023/10/26 11:19:18;;;;;;;2.80;1.67;;;;;;;24.04;43.30;98117.87;4470528;32;33866;-64
2023/10/26 11:21:46;;;;;;;2.72;1.65;;;;;;;24.04;43.29;98111.63;4484450;32;34879;-64
2023/10/26 11:24:17;;;;;;;2.30;1.37;;;;;;;24.03;43.29;98118.97;4484738;32;33891;-64
2023/10/26 11:27:05;;;;;;;1.58;1.23;;;;;;;24.03;43.26;98110.00;4484203;32;33552;-65
2023/10/26 11:29:33;;;;;;;3.20;1.62;;;;;;;24.04;43.23;98106.97;4484407;32;33999;-64
2023/10/26 11:32:00;;;;;;;2.22;1.42;;;;;;;24.04;43.28;98109.72;4484224;32;34999;-64
2023/10/26 11:34:28;;;;;;;3.28;1.75;;;;;;;24.03;43.23;98108.09;4484288;32;33670;-64
2023/10/26 11:36:57;;;;;;;3.30;1.85;;;;;;;24.04;43.25;98103.44;4484329;32;34813;-64
2023/10/26 11:39:25;;;;;;;2.35;1.50;;;;;;;24.04;43.29;98108.91;4484207;32;34047;-64
2023/10/26 11:41:54;;;;;;;2.65;1.60;;;;;;;24.05;43.28;98107.81;4482608;32;34017;-64